sensor_id;sensor_type;location;lat;lon;timestamp;P1;durP1;ratioP1;P2;durP2;ratioP2
70426;SDS011;57872;55.432;37.248;2022-12-18T00:02:15;19.40;;;9.47;;
70426;SDS011;57872;55.432;37.248;2022-12-18T00:07:19;21.17;;;8.93;;
70426;SDS011;57872;55.432;37.248;2022-12-18T00:12:20;18.73;;;9.17;;
70426;SDS011;57872;55.432;37.248;2022-12-18T00:17:21;21.03;;;8.50;;
70426;SDS011;57872;55.432;37.248;2022-12-18T00:22:21;20.03;;;8.40;;
70426;SDS011;57872;55.432;37.248;2022-12-18T00:27:27;18.90;;;8.87;;
70426;SDS011;57872;55.432;37.248;2022-12-18T00:32:28;18.47;;;7.83;;
70426;SDS011;57872;55.432;37.248;2022-12-18T00:37:39;22.17;;;9.03;;
70426;SDS011;57872;55.432;37.248;2022-12-18T00:42:46;18.57;;;9.17;;
70426;SDS011;57872;55.432;37.248;2022-12-18T00:47:56;19.93;;;8.40;;
70426;SDS011;57872;55.432;37.248;2022-12-18T00:52:57;18.57;;;7.30;;
70426;SDS011;57872;55.432;37.248;2022-12-18T00:57:58;19.60;;;8.93;;
70426;SDS011;57872;55.432;37.248;2022-12-18T01:02:58;16.10;;;7.57;;
70426;SDS011;57872;55.432;37.248;2022-12-18T01:07:59;16.13;;;7.60;;
70426;SDS011;57872;55.432;37.248;2022-12-18T01:13:00;19.07;;;8.37;;
70426;SDS011;57872;55.432;37.248;2022-12-18T01:18:00;17.00;;;7.67;;
70426;SDS011;57872;55.432;37.248;2022-12-18T01:23:01;18.63;;;7.73;;
70426;SDS011;57872;55.432;37.248;2022-12-18T01:28:02;18.97;;;8.40;;
70426;SDS011;57872;55.432;37.248;2022-12-18T01:33:06;49.03;;;17.70;;
70426;SDS011;57872;55.432;37.248;2022-12-18T01:38:07;15.55;;;7.30;;
70426;SDS011;57872;55.432;37.248;2022-12-18T01:43:08;17.60;;;8.13;;
70426;SDS011;57872;55.432;37.248;2022-12-18T01:48:09;18.73;;;8.20;;
70426;SDS011;57872;55.432;37.248;2022-12-18T01:53:14;18.37;;;7.33;;
70426;SDS011;57872;55.432;37.248;2022-12-18T01:58:18;17.23;;;8.13;;
70426;SDS011;57872;55.432;37.248;2022-12-18T02:03:19;15.87;;;7.67;;
70426;SDS011;57872;55.432;37.248;2022-12-18T02:08:21;49.50;;;18.37;;
70426;SDS011;57872;55.432;37.248;2022-12-18T02:13:43;17.13;;;7.50;;
70426;SDS011;57872;55.432;37.248;2022-12-18T02:18:48;15.77;;;7.70;;
70426;SDS011;57872;55.432;37.248;2022-12-18T02:24:06;18.63;;;8.27;;
70426;SDS011;57872;55.432;37.248;2022-12-18T02:29:50;20.47;;;8.00;;
70426;SDS011;57872;55.432;37.248;2022-12-18T02:34:52;20.00;;;8.52;;
70426;SDS011;57872;55.432;37.248;2022-12-18T02:39:57;18.03;;;8.30;;
70426;SDS011;57872;55.432;37.248;2022-12-18T02:44:59;16.23;;;8.00;;
70426;SDS011;57872;55.432;37.248;2022-12-18T02:50:08;16.13;;;7.53;;
70426;SDS011;57872;55.432;37.248;2022-12-18T02:55:45;19.93;;;8.27;;
70426;SDS011;57872;55.432;37.248;2022-12-18T03:01:09;16.73;;;6.35;;
70426;SDS011;57872;55.432;37.248;2022-12-18T03:06:13;15.47;;;7.20;;
70426;SDS011;57872;55.432;37.248;2022-12-18T03:11:26;19.58;;;7.50;;
70426;SDS011;57872;55.432;37.248;2022-12-18T03:16:49;12.73;;;6.47;;
70426;SDS011;57872;55.432;37.248;2022-12-18T03:21:53;13.50;;;6.60;;
70426;SDS011;57872;55.432;37.248;2022-12-18T03:27:00;15.70;;;7.27;;
70426;SDS011;57872;55.432;37.248;2022-12-18T03:32:04;16.67;;;7.72;;
70426;SDS011;57872;55.432;37.248;2022-12-18T03:37:12;12.03;;;4.30;;
70426;SDS011;57872;55.432;37.248;2022-12-18T03:42:21;12.60;;;6.40;;
70426;SDS011;57872;55.432;37.248;2022-12-18T03:58:09;11.00;;;5.57;;
70426;SDS011;57872;55.432;37.248;2022-12-18T04:03:27;16.13;;;7.27;;
70426;SDS011;57872;55.432;37.248;2022-12-18T04:08:30;12.37;;;6.13;;
70426;SDS011;57872;55.432;37.248;2022-12-18T04:13:37;14.60;;;7.30;;
70426;SDS011;57872;55.432;37.248;2022-12-18T04:18:47;14.83;;;6.40;;
70426;SDS011;57872;55.432;37.248;2022-12-18T04:23:49;18.60;;;7.13;;
70426;SDS011;57872;55.432;37.248;2022-12-18T04:28:53;15.60;;;6.05;;
70426;SDS011;57872;55.432;37.248;2022-12-18T04:33:54;15.00;;;6.90;;
70426;SDS011;57872;55.432;37.248;2022-12-18T04:38:56;15.57;;;6.50;;
70426;SDS011;57872;55.432;37.248;2022-12-18T04:43:57;13.50;;;6.07;;
70426;SDS011;57872;55.432;37.248;2022-12-18T04:48:58;14.23;;;6.73;;
70426;SDS011;57872;55.432;37.248;2022-12-18T04:53:59;12.93;;;6.57;;
70426;SDS011;57872;55.432;37.248;2022-12-18T04:58:59;14.13;;;6.27;;
70426;SDS011;57872;55.432;37.248;2022-12-18T05:04:01;12.33;;;5.60;;
70426;SDS011;57872;55.432;37.248;2022-12-18T05:09:02;13.37;;;5.43;;
70426;SDS011;57872;55.432;37.248;2022-12-18T05:14:04;12.30;;;6.17;;
70426;SDS011;57872;55.432;37.248;2022-12-18T05:19:05;13.47;;;6.27;;
70426;SDS011;57872;55.432;37.248;2022-12-18T05:24:05;15.90;;;6.57;;
70426;SDS011;57872;55.432;37.248;2022-12-18T05:29:06;12.73;;;5.17;;
70426;SDS011;57872;55.432;37.248;2022-12-18T05:34:07;12.67;;;6.50;;
70426;SDS011;57872;55.432;37.248;2022-12-18T05:39:07;13.93;;;6.47;;
70426;SDS011;57872;55.432;37.248;2022-12-18T05:44:09;11.13;;;5.10;;
70426;SDS011;57872;55.432;37.248;2022-12-18T05:49:09;11.57;;;5.67;;
70426;SDS011;57872;55.432;37.248;2022-12-18T05:54:10;12.50;;;6.27;;
70426;SDS011;57872;55.432;37.248;2022-12-18T05:59:11;12.70;;;5.90;;
70426;SDS011;57872;55.432;37.248;2022-12-18T06:04:12;12.47;;;6.17;;
70426;SDS011;57872;55.432;37.248;2022-12-18T06:09:12;14.60;;;6.10;;
70426;SDS011;57872;55.432;37.248;2022-12-18T06:14:13;17.70;;;5.93;;
70426;SDS011;57872;55.432;37.248;2022-12-18T06:19:14;13.37;;;6.87;;
70426;SDS011;57872;55.432;37.248;2022-12-18T06:24:16;14.77;;;6.07;;
70426;SDS011;57872;55.432;37.248;2022-12-18T06:29:19;15.53;;;6.70;;
70426;SDS011;57872;55.432;37.248;2022-12-18T06:34:24;11.13;;;5.10;;
70426;SDS011;57872;55.432;37.248;2022-12-18T06:44:27;15.13;;;6.20;;
70426;SDS011;57872;55.432;37.248;2022-12-18T06:49:28;15.33;;;6.67;;
70426;SDS011;57872;55.432;37.248;2022-12-18T06:54:29;12.23;;;6.23;;
70426;SDS011;57872;55.432;37.248;2022-12-18T06:59:29;14.00;;;6.07;;
70426;SDS011;57872;55.432;37.248;2022-12-18T07:04:30;11.17;;;4.60;;
70426;SDS011;57872;55.432;37.248;2022-12-18T07:09:34;13.47;;;6.00;;
70426;SDS011;57872;55.432;37.248;2022-12-18T07:14:53;8.83;;;4.37;;
70426;SDS011;57872;55.432;37.248;2022-12-18T07:19:55;11.87;;;5.57;;
70426;SDS011;57872;55.432;37.248;2022-12-18T07:24:56;11.00;;;4.93;;
70426;SDS011;57872;55.432;37.248;2022-12-18T07:29:59;11.30;;;5.20;;
70426;SDS011;57872;55.432;37.248;2022-12-18T07:35:00;15.73;;;6.05;;
70426;SDS011;57872;55.432;37.248;2022-12-18T07:40:01;10.20;;;4.70;;
70426;SDS011;57872;55.432;37.248;2022-12-18T07:45:01;17.03;;;6.83;;
70426;SDS011;57872;55.432;37.248;2022-12-18T07:50:03;13.93;;;5.40;;
70426;SDS011;57872;55.432;37.248;2022-12-18T07:55:04;13.30;;;5.63;;
70426;SDS011;57872;55.432;37.248;2022-12-18T08:00:05;14.50;;;5.77;;
70426;SDS011;57872;55.432;37.248;2022-12-18T08:05:12;15.43;;;6.67;;
70426;SDS011;57872;55.432;37.248;2022-12-18T08:10:13;13.70;;;6.77;;
70426;SDS011;57872;55.432;37.248;2022-12-18T08:15:14;11.77;;;5.60;;
70426;SDS011;57872;55.432;37.248;2022-12-18T08:20:16;14.03;;;5.67;;
70426;SDS011;57872;55.432;37.248;2022-12-18T08:25:18;13.35;;;5.72;;
70426;SDS011;57872;55.432;37.248;2022-12-18T08:30:19;12.10;;;6.43;;
70426;SDS011;57872;55.432;37.248;2022-12-18T08:35:20;13.37;;;5.13;;
70426;SDS011;57872;55.432;37.248;2022-12-18T08:40:20;13.20;;;5.50;;
70426;SDS011;57872;55.432;37.248;2022-12-18T08:45:21;14.80;;;6.30;;
70426;SDS011;57872;55.432;37.248;2022-12-18T08:50:22;13.03;;;6.50;;
70426;SDS011;57872;55.432;37.248;2022-12-18T08:55:22;13.80;;;5.80;;
70426;SDS011;57872;55.432;37.248;2022-12-18T09:00:23;14.03;;;6.37;;
70426;SDS011;57872;55.432;37.248;2022-12-18T09:05:23;12.73;;;5.17;;
70426;SDS011;57872;55.432;37.248;2022-12-18T09:10:24;13.73;;;6.47;;
70426;SDS011;57872;55.432;37.248;2022-12-18T09:15:25;12.60;;;5.63;;
70426;SDS011;57872;55.432;37.248;2022-12-18T09:20:25;15.13;;;6.40;;
70426;SDS011;57872;55.432;37.248;2022-12-18T09:25:31;13.17;;;5.47;;
70426;SDS011;57872;55.432;37.248;2022-12-18T09:30:33;13.37;;;5.27;;
70426;SDS011;57872;55.432;37.248;2022-12-18T09:35:37;13.00;;;5.47;;
70426;SDS011;57872;55.432;37.248;2022-12-18T09:40:45;14.30;;;6.43;;
70426;SDS011;57872;55.432;37.248;2022-12-18T09:45:51;11.17;;;5.47;;
70426;SDS011;57872;55.432;37.248;2022-12-18T09:50:57;16.17;;;6.97;;
70426;SDS011;57872;55.432;37.248;2022-12-18T09:56:01;11.30;;;4.90;;
70426;SDS011;57872;55.432;37.248;2022-12-18T10:01:10;14.07;;;4.85;;
70426;SDS011;57872;55.432;37.248;2022-12-18T10:06:16;14.00;;;5.90;;
70426;SDS011;57872;55.432;37.248;2022-12-18T10:16:45;13.65;;;4.90;;
70426;SDS011;57872;55.432;37.248;2022-12-18T10:26:52;11.98;;;5.07;;
70426;SDS011;57872;55.432;37.248;2022-12-18T10:31:55;10.55;;;4.80;;
70426;SDS011;57872;55.432;37.248;2022-12-18T10:36:55;11.10;;;4.53;;
70426;SDS011;57872;55.432;37.248;2022-12-18T10:42:09;8.93;;;4.13;;
70426;SDS011;57872;55.432;37.248;2022-12-18T10:47:19;13.37;;;5.53;;
70426;SDS011;57872;55.432;37.248;2022-12-18T10:52:21;8.80;;;4.07;;
70426;SDS011;57872;55.432;37.248;2022-12-18T11:02:39;10.60;;;4.33;;
70426;SDS011;57872;55.432;37.248;2022-12-18T11:07:46;11.80;;;4.77;;
70426;SDS011;57872;55.432;37.248;2022-12-18T11:12:49;9.77;;;4.20;;
70426;SDS011;57872;55.432;37.248;2022-12-18T11:17:50;10.83;;;3.67;;
70426;SDS011;57872;55.432;37.248;2022-12-18T11:23:01;12.73;;;5.17;;
70426;SDS011;57872;55.432;37.248;2022-12-18T11:28:05;11.43;;;5.03;;
70426;SDS011;57872;55.432;37.248;2022-12-18T11:33:25;11.00;;;4.60;;
70426;SDS011;57872;55.432;37.248;2022-12-18T11:38:26;9.27;;;3.80;;
70426;SDS011;57872;55.432;37.248;2022-12-18T11:43:48;9.63;;;3.90;;
70426;SDS011;57872;55.432;37.248;2022-12-18T11:48:58;10.83;;;4.50;;
70426;SDS011;57872;55.432;37.248;2022-12-18T11:54:13;10.80;;;4.50;;
70426;SDS011;57872;55.432;37.248;2022-12-18T12:04:56;7.80;;;3.43;;
70426;SDS011;57872;55.432;37.248;2022-12-18T12:15:34;10.83;;;4.47;;
70426;SDS011;57872;55.432;37.248;2022-12-18T12:21:00;9.53;;;3.93;;
70426;SDS011;57872;55.432;37.248;2022-12-18T12:26:07;10.20;;;4.20;;
70426;SDS011;57872;55.432;37.248;2022-12-18T12:31:14;11.07;;;4.27;;
70426;SDS011;57872;55.432;37.248;2022-12-18T12:41:46;11.98;;;4.55;;
70426;SDS011;57872;55.432;37.248;2022-12-18T12:47:09;11.30;;;3.93;;
70426;SDS011;57872;55.432;37.248;2022-12-18T12:52:16;10.23;;;3.53;;
70426;SDS011;57872;55.432;37.248;2022-12-18T12:57:39;12.47;;;4.67;;
70426;SDS011;57872;55.432;37.248;2022-12-18T13:07:57;7.27;;;3.20;;
70426;SDS011;57872;55.432;37.248;2022-12-18T13:33:45;12.77;;;4.70;;
70426;SDS011;57872;55.432;37.248;2022-12-18T13:38:46;11.67;;;4.53;;
70426;SDS011;57872;55.432;37.248;2022-12-18T13:54:19;21.33;;;6.57;;
70426;SDS011;57872;55.432;37.248;2022-12-18T13:59:37;19.60;;;8.40;;
70426;SDS011;57872;55.432;37.248;2022-12-18T14:04:39;23.40;;;6.80;;
70426;SDS011;57872;55.432;37.248;2022-12-18T14:09:41;19.87;;;8.27;;
70426;SDS011;57872;55.432;37.248;2022-12-18T14:14:44;22.80;;;8.55;;
70426;SDS011;57872;55.432;37.248;2022-12-18T14:19:48;25.77;;;8.15;;
70426;SDS011;57872;55.432;37.248;2022-12-18T14:25:04;20.87;;;6.27;;
70426;SDS011;57872;55.432;37.248;2022-12-18T14:35:23;14.33;;;5.43;;
70426;SDS011;57872;55.432;37.248;2022-12-18T14:40:24;15.17;;;5.90;;
70426;SDS011;57872;55.432;37.248;2022-12-18T14:45:38;9.03;;;4.67;;
70426;SDS011;57872;55.432;37.248;2022-12-18T14:50:41;10.03;;;3.97;;
70426;SDS011;57872;55.432;37.248;2022-12-18T14:55:45;16.60;;;5.57;;
70426;SDS011;57872;55.432;37.248;2022-12-18T15:00:47;11.97;;;3.97;;
70426;SDS011;57872;55.432;37.248;2022-12-18T15:05:48;10.00;;;3.17;;
70426;SDS011;57872;55.432;37.248;2022-12-18T15:10:48;9.20;;;3.33;;
70426;SDS011;57872;55.432;37.248;2022-12-18T15:15:49;11.53;;;4.13;;
70426;SDS011;57872;55.432;37.248;2022-12-18T15:20:54;11.20;;;4.23;;
70426;SDS011;57872;55.432;37.248;2022-12-18T15:26:00;10.40;;;4.47;;
70426;SDS011;57872;55.432;37.248;2022-12-18T15:31:18;11.60;;;4.20;;
70426;SDS011;57872;55.432;37.248;2022-12-18T15:36:28;7.40;;;2.90;;
70426;SDS011;57872;55.432;37.248;2022-12-18T15:41:36;8.20;;;3.30;;
70426;SDS011;57872;55.432;37.248;2022-12-18T15:46:36;12.13;;;4.23;;
70426;SDS011;57872;55.432;37.248;2022-12-18T15:51:37;8.83;;;3.93;;
70426;SDS011;57872;55.432;37.248;2022-12-18T15:56:38;8.57;;;3.60;;
70426;SDS011;57872;55.432;37.248;2022-12-18T16:01:58;6.10;;;3.13;;
70426;SDS011;57872;55.432;37.248;2022-12-18T16:06:58;12.30;;;5.33;;
70426;SDS011;57872;55.432;37.248;2022-12-18T16:11:59;10.60;;;3.83;;
70426;SDS011;57872;55.432;37.248;2022-12-18T16:17:00;11.70;;;4.90;;
70426;SDS011;57872;55.432;37.248;2022-12-18T16:22:02;11.07;;;4.03;;
70426;SDS011;57872;55.432;37.248;2022-12-18T16:27:03;8.93;;;3.73;;
70426;SDS011;57872;55.432;37.248;2022-12-18T16:32:03;12.20;;;4.47;;
70426;SDS011;57872;55.432;37.248;2022-12-18T16:37:05;7.00;;;2.90;;
70426;SDS011;57872;55.432;37.248;2022-12-18T16:42:26;14.13;;;4.70;;
70426;SDS011;57872;55.432;37.248;2022-12-18T16:47:27;11.37;;;4.07;;
70426;SDS011;57872;55.432;37.248;2022-12-18T16:52:27;11.33;;;4.53;;
70426;SDS011;57872;55.432;37.248;2022-12-18T16:57:29;10.70;;;4.10;;
70426;SDS011;57872;55.432;37.248;2022-12-18T17:02:31;7.87;;;3.77;;
70426;SDS011;57872;55.432;37.248;2022-12-18T17:07:32;12.17;;;5.07;;
70426;SDS011;57872;55.432;37.248;2022-12-18T17:12:33;11.77;;;4.77;;
70426;SDS011;57872;55.432;37.248;2022-12-18T17:17:34;19.70;;;4.73;;
70426;SDS011;57872;55.432;37.248;2022-12-18T17:22:35;12.20;;;4.40;;
70426;SDS011;57872;55.432;37.248;2022-12-18T17:27:36;12.13;;;5.43;;
70426;SDS011;57872;55.432;37.248;2022-12-18T17:32:37;13.13;;;5.13;;
70426;SDS011;57872;55.432;37.248;2022-12-18T17:37:38;14.23;;;4.73;;
70426;SDS011;57872;55.432;37.248;2022-12-18T17:42:38;14.43;;;6.17;;
70426;SDS011;57872;55.432;37.248;2022-12-18T17:47:39;16.70;;;5.80;;
70426;SDS011;57872;55.432;37.248;2022-12-18T17:52:41;7.30;;;4.23;;
70426;SDS011;57872;55.432;37.248;2022-12-18T17:57:42;16.83;;;6.60;;
70426;SDS011;57872;55.432;37.248;2022-12-18T18:02:43;10.20;;;2.90;;
70426;SDS011;57872;55.432;37.248;2022-12-18T18:07:45;16.60;;;5.97;;
70426;SDS011;57872;55.432;37.248;2022-12-18T18:12:46;11.57;;;3.70;;
70426;SDS011;57872;55.432;37.248;2022-12-18T18:18:05;13.00;;;5.50;;
70426;SDS011;57872;55.432;37.248;2022-12-18T18:23:05;19.17;;;7.00;;
70426;SDS011;57872;55.432;37.248;2022-12-18T18:28:06;16.77;;;5.97;;
70426;SDS011;57872;55.432;37.248;2022-12-18T18:33:07;16.83;;;5.37;;
70426;SDS011;57872;55.432;37.248;2022-12-18T18:38:08;14.30;;;5.43;;
70426;SDS011;57872;55.432;37.248;2022-12-18T18:43:08;14.37;;;6.17;;
70426;SDS011;57872;55.432;37.248;2022-12-18T18:48:09;10.73;;;5.27;;
70426;SDS011;57872;55.432;37.248;2022-12-18T18:53:11;19.27;;;7.77;;
70426;SDS011;57872;55.432;37.248;2022-12-18T18:58:12;16.47;;;5.60;;
70426;SDS011;57872;55.432;37.248;2022-12-18T19:03:13;19.70;;;7.47;;
70426;SDS011;57872;55.432;37.248;2022-12-18T19:08:13;19.63;;;6.93;;
70426;SDS011;57872;55.432;37.248;2022-12-18T19:13:14;21.70;;;7.23;;
70426;SDS011;57872;55.432;37.248;2022-12-18T19:18:21;15.53;;;5.23;;
70426;SDS011;57872;55.432;37.248;2022-12-18T19:23:22;21.60;;;6.93;;
70426;SDS011;57872;55.432;37.248;2022-12-18T19:28:22;14.20;;;6.00;;
70426;SDS011;57872;55.432;37.248;2022-12-18T19:33:25;24.27;;;6.37;;
70426;SDS011;57872;55.432;37.248;2022-12-18T19:38:27;16.53;;;5.77;;
70426;SDS011;57872;55.432;37.248;2022-12-18T19:43:28;16.77;;;6.80;;
70426;SDS011;57872;55.432;37.248;2022-12-18T19:48:29;15.53;;;7.00;;
70426;SDS011;57872;55.432;37.248;2022-12-18T19:53:30;13.07;;;5.90;;
70426;SDS011;57872;55.432;37.248;2022-12-18T19:58:30;14.17;;;7.33;;
70426;SDS011;57872;55.432;37.248;2022-12-18T20:08:33;16.63;;;5.53;;
70426;SDS011;57872;55.432;37.248;2022-12-18T20:13:36;18.17;;;6.73;;
70426;SDS011;57872;55.432;37.248;2022-12-18T20:18:37;16.97;;;6.57;;
70426;SDS011;57872;55.432;37.248;2022-12-18T20:23:38;38.13;;;5.10;;
70426;SDS011;57872;55.432;37.248;2022-12-18T20:28:38;12.57;;;5.73;;
70426;SDS011;57872;55.432;37.248;2022-12-18T20:33:39;11.93;;;5.37;;
70426;SDS011;57872;55.432;37.248;2022-12-18T20:38:41;9.73;;;5.33;;
70426;SDS011;57872;55.432;37.248;2022-12-18T20:43:42;19.13;;;7.17;;
70426;SDS011;57872;55.432;37.248;2022-12-18T20:48:43;16.40;;;5.60;;
70426;SDS011;57872;55.432;37.248;2022-12-18T20:53:44;9.47;;;4.23;;
70426;SDS011;57872;55.432;37.248;2022-12-18T20:58:45;4.03;;;2.57;;
70426;SDS011;57872;55.432;37.248;2022-12-18T21:03:46;8.07;;;3.17;;
70426;SDS011;57872;55.432;37.248;2022-12-18T21:08:47;7.90;;;3.50;;
70426;SDS011;57872;55.432;37.248;2022-12-18T21:13:48;15.07;;;4.33;;
70426;SDS011;57872;55.432;37.248;2022-12-18T21:18:49;11.20;;;4.87;;
70426;SDS011;57872;55.432;37.248;2022-12-18T21:23:50;9.47;;;3.63;;
70426;SDS011;57872;55.432;37.248;2022-12-18T21:28:54;9.93;;;4.47;;
70426;SDS011;57872;55.432;37.248;2022-12-18T21:33:57;10.97;;;3.93;;
70426;SDS011;57872;55.432;37.248;2022-12-18T21:38:58;5.77;;;2.73;;
70426;SDS011;57872;55.432;37.248;2022-12-18T21:44:00;7.43;;;2.57;;
70426;SDS011;57872;55.432;37.248;2022-12-18T21:49:07;11.37;;;4.60;;
70426;SDS011;57872;55.432;37.248;2022-12-18T21:54:09;8.50;;;2.97;;
70426;SDS011;57872;55.432;37.248;2022-12-18T21:59:17;12.40;;;4.30;;
70426;SDS011;57872;55.432;37.248;2022-12-18T22:04:19;5.53;;;2.23;;
70426;SDS011;57872;55.432;37.248;2022-12-18T22:09:21;8.30;;;2.57;;
70426;SDS011;57872;55.432;37.248;2022-12-18T22:14:22;10.43;;;4.00;;
70426;SDS011;57872;55.432;37.248;2022-12-18T22:19:23;4.80;;;2.20;;
70426;SDS011;57872;55.432;37.248;2022-12-18T22:24:24;10.23;;;4.17;;
70426;SDS011;57872;55.432;37.248;2022-12-18T22:29:25;4.80;;;2.53;;
70426;SDS011;57872;55.432;37.248;2022-12-18T22:34:44;9.17;;;4.03;;
70426;SDS011;57872;55.432;37.248;2022-12-18T22:39:45;9.60;;;4.13;;
70426;SDS011;57872;55.432;37.248;2022-12-18T22:44:46;11.13;;;3.97;;
70426;SDS011;57872;55.432;37.248;2022-12-18T22:49:46;8.33;;;3.23;;
70426;SDS011;57872;55.432;37.248;2022-12-18T22:54:47;7.30;;;2.37;;
70426;SDS011;57872;55.432;37.248;2022-12-18T22:59:48;10.10;;;3.97;;
70426;SDS011;57872;55.432;37.248;2022-12-18T23:04:49;7.63;;;2.97;;
70426;SDS011;57872;55.432;37.248;2022-12-18T23:09:50;6.17;;;2.30;;
70426;SDS011;57872;55.432;37.248;2022-12-18T23:14:50;10.03;;;3.23;;
70426;SDS011;57872;55.432;37.248;2022-12-18T23:19:52;10.90;;;3.97;;
70426;SDS011;57872;55.432;37.248;2022-12-18T23:24:52;7.97;;;3.17;;
70426;SDS011;57872;55.432;37.248;2022-12-18T23:29:53;9.77;;;3.90;;
70426;SDS011;57872;55.432;37.248;2022-12-18T23:34:53;14.57;;;4.00;;
70426;SDS011;57872;55.432;37.248;2022-12-18T23:39:54;7.33;;;2.20;;
70426;SDS011;57872;55.432;37.248;2022-12-18T23:44:54;3.00;;;1.63;;
70426;SDS011;57872;55.432;37.248;2022-12-18T23:49:55;10.97;;;3.87;;
70426;SDS011;57872;55.432;37.248;2022-12-18T23:54:56;9.47;;;3.63;;
70426;SDS011;57872;55.432;37.248;2022-12-18T23:59:56;8.80;;;3.30;;
